Time;durP1;ratioP1;P1;durP2;ratioP2;P2;SDS_P1;SDS_P2;PMS_P1;PMS_P2;Temp;Humidity;BMP_temperature;BMP_pressure;BME280_temperature;BME280_humidity;BME280_pressure;Samples;Min_cycle;Max_cycle;Signal;HPM_P1;HPM_P2
2021/06/29 00:05:53;;;;;;;13.25;9.32;;;16.50;99.90;;;;;;21009583;28;20028;-79
2021/06/29 00:15:54;;;;;;;18.10;10.73;;;16.50;99.90;;;;;;20990484;28;20040;-78
2021/06/29 00:25:58;;;;;;;16.10;12.30;;;16.50;99.90;;;;;;21006581;28;20053;-79
2021/06/29 00:35:59;;;;;;;14.05;10.43;;;16.50;99.90;;;;;;21005312;28;20028;-79
2021/06/29 00:46:00;;;;;;;22.53;11.57;;;16.50;99.90;;;;;;21006498;28;20371;-77
2021/06/29 00:56:01;;;;;;;16.73;10.83;;;16.50;99.90;;;;;;21005269;28;20025;-79
2021/06/29 01:06:02;;;;;;;16.20;11.77;;;16.50;99.90;;;;;;21022601;28;20107;-80
2021/06/29 01:16:03;;;;;;;20.10;14.23;;;16.50;99.90;;;;;;21027759;28;20036;-79
2021/06/29 01:26:05;;;;;;;16.93;11.43;;;16.40;99.90;;;;;;21012782;28;20044;-78
2021/06/29 01:36:06;;;;;;;14.80;10.35;;;16.40;99.90;;;;;;21004813;28;20024;-79
2021/06/29 01:46:07;;;;;;;13.17;8.93;;;16.50;99.90;;;;;;20999675;28;20040;-78
2021/06/29 01:56:14;;;;;;;7.40;6.17;;;16.50;99.90;;;;;;20980189;28;20500;-79
2021/06/29 02:06:16;;;;;;;16.70;11.10;;;16.60;99.90;;;;;;21021049;28;20036;-80
2021/06/29 02:16:16;;;;;;;;;;;16.40;99.90;;;;;;21017066;28;20131;-80
2021/06/29 02:26:18;;;;;;;9.70;8.13;;;16.40;99.90;;;;;;21026661;28;19930;-79
2021/06/29 02:36:19;;;;;;;9.93;7.28;;;16.40;99.90;;;;;;21042850;28;20101;-79
2021/06/29 02:46:20;;;;;;;9.20;5.43;;;16.60;99.90;;;;;;21012821;28;20032;-78
2021/06/29 03:06:40;;;;;;;6.60;5.18;;;16.60;99.90;;;;;;21028247;28;20025;-78
2021/06/29 03:16:41;;;;;;;8.40;6.40;;;16.50;99.90;;;;;;21037563;28;20025;-78
2021/06/29 03:26:42;;;;;;;8.00;5.60;;;16.50;99.90;;;;;;21023520;28;20036;-77
2021/06/29 03:36:42;;;;;;;9.30;5.63;;;16.40;99.90;;;;;;21020291;28;20410;-79
2021/06/29 03:46:44;;;;;;;7.50;6.13;;;16.40;99.90;;;;;;21005503;28;20041;-80
2021/06/29 03:56:45;;;;;;;6.15;5.10;;;16.50;99.90;;;;;;21005202;28;20054;-81
2021/06/29 04:06:46;;;;;;;5.43;4.53;;;16.60;99.90;;;;;;21024417;28;20510;-80
2021/06/29 04:16:47;;;;;;;8.23;4.80;;;16.50;99.90;;;;;;20997537;28;20032;-80
2021/06/29 04:26:48;;;;;;;8.13;5.33;;;16.40;99.90;;;;;;21016704;28;20089;-80
2021/06/29 04:36:49;;;;;;;7.60;4.60;;;16.40;99.90;;;;;;21017318;28;20027;-80
2021/06/29 04:46:51;;;;;;;7.13;3.93;;;16.40;99.90;;;;;;20998890;28;20048;-81
2021/06/29 04:56:52;;;;;;;6.63;4.15;;;16.40;99.90;;;;;;21002401;28;20376;-81
2021/06/29 05:06:52;;;;;;;4.70;3.90;;;16.20;99.90;;;;;;21008370;28;20036;-80
2021/06/29 05:16:53;;;;;;;4.17;3.43;;;16.30;99.90;;;;;;20997144;28;20039;-79
2021/06/29 05:26:54;;;;;;;4.77;2.80;;;16.80;99.90;;;;;;20997447;28;20047;-80
2021/06/29 05:36:55;;;;;;;6.00;3.10;;;17.10;99.90;;;;;;20996072;28;20035;-82
2021/06/29 05:46:56;;;;;;;2.83;2.33;;;17.30;99.90;;;;;;20995682;28;20115;-80
2021/06/29 05:56:58;;;;;;;4.97;2.00;;;17.80;99.90;;;;;;21020094;28;20386;-81
2021/06/29 06:06:58;;;;;;;6.00;2.27;;;17.70;99.90;;;;;;21021451;28;20028;-80
2021/06/29 06:16:59;;;;;;;3.37;2.43;;;17.70;99.90;;;;;;21028146;28;20027;-81
2021/06/29 06:27:00;;;;;;;2.13;1.63;;;18.60;99.90;;;;;;21003959;28;20028;-78
2021/06/29 06:37:01;;;;;;;2.40;1.70;;;19.10;99.90;;;;;;20994269;28;20032;-79
2021/06/29 06:47:02;;;;;;;3.97;1.50;;;19.00;99.90;;;;;;21002550;28;20043;-80
2021/06/29 06:57:03;;;;;;;6.10;1.50;;;18.60;99.90;;;;;;21018642;28;20195;-81
2021/06/29 07:07:04;;;;;;;2.50;1.50;;;19.20;99.90;;;;;;20992707;28;20086;-81
2021/06/29 07:17:05;;;;;;;1.83;1.20;;;19.90;99.90;;;;;;20990356;28;20036;-82
2021/06/29 07:27:07;;;;;;;2.43;1.10;;;20.50;99.90;;;;;;20990338;28;20547;-78
2021/06/29 07:37:08;;;;;;;1.60;1.20;;;19.90;99.90;;;;;;20994682;28;20398;-81
2021/06/29 07:47:08;;;;;;;1.77;1.07;;;20.10;99.90;;;;;;21002530;28;20036;-81
2021/06/29 07:57:09;;;;;;;1.03;1.00;;;20.60;99.90;;;;;;21029890;28;20037;-80
2021/06/29 08:07:10;;;;;;;2.57;0.90;;;21.90;99.90;;;;;;21030648;28;20482;-81
2021/06/29 08:17:12;;;;;;;1.07;0.90;;;22.80;99.90;;;;;;21010430;28;20056;-81
2021/06/29 08:27:16;;;;;;;1.02;0.73;;;22.90;99.90;;;;;;21026946;28;20399;-81
2021/06/29 08:37:17;;;;;;;1.85;0.80;;;23.30;99.90;;;;;;21034105;28;20422;-80
2021/06/29 08:47:18;;;;;;;3.78;1.15;;;24.00;99.90;;;;;;21029898;28;20074;-81
2021/06/29 08:57:19;;;;;;;1.60;0.77;;;23.50;99.90;;;;;;21060717;28;20044;-80
2021/06/29 09:07:29;;;;;;;3.50;0.73;;;23.50;99.90;;;;;;21013128;28;20389;-81
2021/06/29 09:17:37;;;;;;;4.78;0.70;;;24.20;99.90;;;;;;21009683;28;20467;-80
2021/06/29 09:27:42;;;;;;;1.42;0.55;;;24.90;99.90;;;;;;20990983;28;20372;-80
2021/06/29 09:37:46;;;;;;;2.10;0.70;;;25.20;99.90;;;;;;21011315;28;20021;-80
2021/06/29 09:47:48;;;;;;;1.80;0.60;;;26.00;99.90;;;;;;20990118;28;20131;-78
2021/06/29 09:58:05;;;;;;;;;;;24.90;99.90;;;;;;21007807;28;20033;-81
2021/06/29 10:08:07;;;;;;;1.40;0.70;;;24.70;99.90;;;;;;21004802;28;19908;-79
2021/06/29 10:18:09;;;;;;;3.05;0.60;;;24.40;99.90;;;;;;20987191;28;20123;-80
2021/06/29 10:28:15;;;;;;;2.58;0.60;;;23.80;99.90;;;;;;21003725;28;20450;-80
2021/06/29 10:38:15;;;;;;;3.15;1.00;;;23.10;99.90;;;;;;21003221;28;20029;-80
2021/06/29 10:48:19;;;;;;;0.97;0.40;;;21.90;99.90;;;;;;20997144;28;20047;-78
2021/06/29 10:58:39;;;;;;;2.15;0.40;;;19.80;99.90;;;;;;20980031;28;20029;-81
2021/06/29 11:08:48;;;;;;;7.50;0.52;;;18.10;99.90;;;;;;20981592;28;20415;-79
2021/06/29 11:18:50;;;;;;;0.63;0.45;;;16.90;99.90;;;;;;20984869;28;20036;-78
2021/06/29 11:29:00;;;;;;;1.20;0.50;;;15.70;99.90;;;;;;21013955;28;20054;-79
2021/06/29 11:39:16;;;;;;;0.60;0.50;;;15.60;99.90;;;;;;21016678;28;20033;-79
2021/06/29 11:49:26;;;;;;;1.00;0.88;;;15.30;99.90;;;;;;21000503;28;20177;-79
2021/06/29 11:59:31;;;;;;;6.25;0.85;;;15.00;99.90;;;;;;21000724;28;20060;-79
2021/06/29 12:09:36;;;;;;;2.60;0.75;;;14.80;99.90;;;;;;21000511;28;20119;-80
2021/06/29 12:19:39;;;;;;;1.98;1.02;;;14.70;99.90;;;;;;21005859;28;20044;-77
2021/06/29 12:29:40;;;;;;;2.10;1.00;;;14.70;99.90;;;;;;21018158;28;20115;-79
2021/06/29 12:39:41;;;;;;;2.37;1.10;;;14.90;99.90;;;;;;20972372;28;20037;-77
2021/06/29 12:49:49;;;;;;;2.87;1.20;;;15.10;99.90;;;;;;21011198;22;20071;-79
2021/06/29 12:59:51;;;;;;;4.10;1.40;;;15.50;99.90;;;;;;20994738;28;20024;-80
2021/06/29 13:09:54;;;;;;;1.13;0.90;;;15.40;99.90;;;;;;21002355;28;20028;-81
2021/06/29 13:20:10;;;;;;;3.72;1.40;;;15.60;99.90;;;;;;20983464;28;20024;-80
2021/06/29 13:30:12;;;;;;;1.20;1.10;;;15.80;99.90;;;;;;20965585;28;20120;-81
2021/06/29 13:40:26;;;;;;;6.28;1.00;;;16.20;99.90;;;;;;20974162;28;20456;-81
2021/06/29 13:50:43;;;;;;;1.45;1.05;;;16.70;99.90;;;;;;20974680;28;20464;-81
2021/06/29 14:00:46;;;;;;;3.13;1.50;;;17.00;99.90;;;;;;20955023;28;20086;-82
2021/06/29 14:10:59;;;;;;;1.60;1.20;;;17.40;99.90;;;;;;20944883;28;20095;-80
2021/06/29 14:21:14;;;;;;;5.18;1.30;;;17.50;99.90;;;;;;20958691;28;20048;-80
2021/06/29 14:31:16;;;;;;;4.40;1.15;;;17.50;99.90;;;;;;20945133;28;20040;-82
2021/06/29 14:41:18;;;;;;;8.75;1.75;;;18.10;99.90;;;;;;20941857;28;20063;-81
2021/06/29 14:51:24;;;;;;;3.97;1.30;;;17.90;99.90;;;;;;20956154;28;20063;-81
2021/06/29 15:01:26;;;;;;;3.60;1.30;;;18.30;99.90;;;;;;20975894;28;20070;-82
2021/06/29 15:11:31;;;;;;;3.03;1.27;;;19.20;99.90;;;;;;20962419;28;20056;-84
2021/06/29 15:21:34;;;;;;;1.92;0.80;;;18.60;99.90;;;;;;20958812;28;20291;-83
2021/06/29 15:31:35;;;;;;;3.47;1.00;;;19.50;99.90;;;;;;20957724;28;20032;-84
2021/06/29 15:41:41;;;;;;;1.10;0.90;;;20.10;99.90;;;;;;20954252;28;20059;-82
2021/06/29 15:51:42;;;;;;;1.88;0.80;;;20.20;99.90;;;;;;20967646;28;20036;-83
2021/06/29 16:01:47;;;;;;;1.30;0.77;;;20.30;99.90;;;;;;20951579;28;20040;-83
2021/06/29 16:11:48;;;;;;;1.10;0.70;;;19.90;99.90;;;;;;20948735;28;20085;-81
2021/06/29 16:21:52;;;;;;;1.17;0.73;;;19.80;99.90;;;;;;20945900;28;20033;-82
2021/06/29 16:31:52;;;;;;;1.08;0.60;;;19.70;99.90;;;;;;20945852;28;20064;-83
2021/06/29 16:41:53;;;;;;;2.73;0.40;;;19.70;99.90;;;;;;20944445;28;20097;-84
2021/06/29 16:51:55;;;;;;;1.90;0.70;;;19.50;99.90;;;;;;20958382;28;20052;-83
2021/06/29 17:01:56;;;;;;;1.30;0.80;;;19.50;99.90;;;;;;20957996;28;20052;-80
2021/06/29 17:11:58;;;;;;;1.83;0.70;;;19.60;99.90;;;;;;20941093;28;20047;-82
2021/06/29 17:21:59;;;;;;;3.47;0.68;;;19.30;99.90;;;;;;20936340;28;20038;-82
2021/06/29 17:32:00;;;;;;;4.63;0.73;;;19.30;99.90;;;;;;20935880;28;20037;-82
2021/06/29 17:42:01;;;;;;;0.57;0.43;;;19.50;99.90;;;;;;20934195;28;20036;-83
2021/06/29 17:52:02;;;;;;;0.77;0.50;;;20.80;99.90;;;;;;20936030;28;20094;-82
2021/06/29 18:02:03;;;;;;;5.07;0.40;;;21.00;99.90;;;;;;20932413;28;20593;-81
2021/06/29 18:12:06;;;;;;;1.53;0.50;;;22.20;99.90;;;;;;20935759;28;20713;-81
2021/06/29 18:22:07;;;;;;;2.30;0.80;;;23.70;99.90;;;;;;20955270;28;20036;-83
2021/06/29 18:32:08;;;;;;;2.67;1.13;;;24.50;99.90;;;;;;20949945;28;20260;-83
2021/06/29 18:42:09;;;;;;;1.60;0.60;;;25.20;99.90;;;;;;20948061;28;20036;-83
2021/06/29 18:52:10;;;;;;;0.97;0.40;;;22.40;99.90;;;;;;20921029;22;20231;-83
2021/06/29 19:02:11;;;;;;;2.25;0.70;;;19.80;99.90;;;;;;20871406;28;20374;-82
2021/06/29 19:12:12;;;;;;;18.30;8.73;;;18.90;99.90;;;;;;20865319;28;20135;-84
2021/06/29 19:22:13;;;;;;;10.90;3.33;;;18.60;99.90;;;;;;20865387;28;20040;-84
2021/06/29 19:32:14;;;;;;;2.73;1.47;;;18.90;99.90;;;;;;20870978;28;20033;-82
2021/06/29 19:42:16;;;;;;;7.00;1.13;;;18.50;99.90;;;;;;20946558;28;20044;-83
2021/06/29 19:52:17;;;;;;;;;;;18.10;99.90;;;;;;20888706;28;20037;-82
2021/06/29 20:02:19;;;;;;;3.45;1.73;;;17.50;99.90;;;;;;20887056;28;19919;-84
2021/06/29 20:12:20;;;;;;;;;;;17.10;99.90;;;;;;20909634;28;20032;-86
2021/06/29 20:22:21;;;;;;;3.30;1.83;;;15.90;99.90;;;;;;20909646;28;19921;-83
2021/06/29 20:32:22;;;;;;;0.70;0.50;;;15.40;99.90;;;;;;20895007;28;20032;-84
2021/06/29 20:42:23;;;;;;;2.00;0.83;;;15.10;99.90;;;;;;20908425;28;20028;-82
2021/06/29 20:52:25;;;;;;;2.43;0.60;;;14.90;99.90;;;;;;20908920;28;20522;-86
2021/06/29 21:02:26;;;;;;;0.88;0.60;;;15.10;99.90;;;;;;20896125;28;20029;-85
2021/06/29 21:12:27;;;;;;;4.47;0.70;;;15.10;99.90;;;;;;20910219;28;20035;-87
2021/06/29 21:22:28;;;;;;;2.70;0.63;;;14.80;99.90;;;;;;20905300;28;20166;-88
2021/06/29 21:32:29;;;;;;;4.50;1.37;;;14.40;99.90;;;;;;20903501;28;20033;-88
2021/06/29 21:42:30;;;;;;;3.27;1.57;;;14.30;99.90;;;;;;20884738;28;20409;-85
2021/06/29 21:52:31;;;;;;;2.80;0.83;;;14.50;99.90;;;;;;20881381;28;20071;-85
2021/06/29 22:02:32;;;;;;;1.33;0.90;;;14.50;99.90;;;;;;20881715;28;20079;-82
2021/06/29 22:12:33;;;;;;;0.87;0.77;;;14.20;99.90;;;;;;20896980;28;20100;-85
2021/06/29 22:22:34;;;;;;;5.33;1.23;;;14.20;99.90;;;;;;20893470;28;20029;-84
2021/06/29 22:32:35;;;;;;;2.30;1.27;;;14.10;99.90;;;;;;20914145;28;20021;-81
2021/06/29 22:42:36;;;;;;;1.30;0.93;;;14.00;99.90;;;;;;20884577;28;20040;-86
2021/06/29 22:52:37;;;;;;;0.50;0.50;;;14.00;99.90;;;;;;20892993;28;20048;-83
2021/06/29 23:02:38;;;;;;;2.03;0.83;;;13.90;99.90;;;;;;20886481;28;20078;-85
2021/06/29 23:12:39;;;;;;;0.73;0.47;;;13.90;99.90;;;;;;20886215;28;20557;-83
2021/06/29 23:22:40;;;;;;;3.77;1.00;;;13.80;99.90;;;;;;20903189;28;20409;-83
2021/06/29 23:32:41;;;;;;;3.33;0.90;;;13.80;99.90;;;;;;20913394;28;20029;-84
2021/06/29 23:42:42;;;;;;;2.80;0.90;;;13.80;99.90;;;;;;20922397;28;20033;-84
2021/06/29 23:52:43;;;;;;;1.17;0.90;;;13.60;99.90;;;;;;20909394;28;20502;-84
